createdAt,value
2022-11-03T00:01:44.745Z,14.84
2022-11-03T00:04:14.185Z,14.85
2022-11-03T00:06:42.368Z,14.83
2022-11-03T00:09:11.640Z,14.82
2022-11-03T00:11:39.899Z,14.81
2022-11-03T00:14:07.541Z,14.83
2022-11-03T00:16:34.336Z,14.82
2022-11-03T00:19:01.411Z,14.81
2022-11-03T00:21:29.798Z,14.79
2022-11-03T00:23:56.771Z,14.78
2022-11-03T00:26:28.637Z,14.76
2022-11-03T00:28:57.281Z,14.74
2022-11-03T00:31:32.264Z,14.74
2022-11-03T00:34:00.259Z,14.72
2022-11-03T00:36:34.999Z,14.69
2022-11-03T00:39:04.702Z,14.67
2022-11-03T00:41:31.861Z,14.66
2022-11-03T00:43:58.765Z,14.67
2022-11-03T00:46:25.819Z,14.65
2022-11-03T00:48:52.645Z,14.65
2022-11-03T00:51:20.589Z,14.65
2022-11-03T00:54:07.687Z,14.62
2022-11-03T00:56:39.692Z,14.61
2022-11-03T01:01:53.077Z,14.57
2022-11-03T01:04:38.531Z,14.56
2022-11-03T01:07:06.144Z,14.54
2022-11-03T01:09:38.299Z,14.54
2022-11-03T01:12:09.687Z,14.54
2022-11-03T01:14:44.994Z,14.52
2022-11-03T01:17:18.243Z,14.51
2022-11-03T01:19:45.647Z,14.50
2022-11-03T01:22:13.627Z,14.51
2022-11-03T01:24:41.796Z,14.51
2022-11-03T01:27:10.679Z,14.50
2022-11-03T01:29:37.424Z,14.49
2022-11-03T01:32:04.265Z,14.49
2022-11-03T01:34:31.217Z,14.49
2022-11-03T01:36:57.979Z,14.50
2022-11-03T01:39:24.636Z,14.52
2022-11-03T01:41:52.936Z,14.48
2022-11-03T01:44:19.525Z,14.49
2022-11-03T01:46:55.519Z,14.49
2022-11-03T01:49:29.966Z,14.48
2022-11-03T01:52:09.558Z,14.48
2022-11-03T01:54:38.097Z,14.47
2022-11-03T01:57:12.902Z,14.47
2022-11-03T01:59:41.400Z,14.48
2022-11-03T02:02:08.673Z,14.47
2022-11-03T02:04:35.966Z,14.44
2022-11-03T02:07:19.369Z,14.44
2022-11-03T02:09:46.272Z,14.45
2022-11-03T02:12:16.127Z,14.42
2022-11-03T02:14:48.963Z,14.43
2022-11-03T02:17:16.775Z,14.43
2022-11-03T02:19:49.307Z,14.41
2022-11-03T02:22:31.095Z,14.39
2022-11-03T02:25:06.315Z,14.40
2022-11-03T02:27:33.386Z,14.38
2022-11-03T02:30:00.232Z,14.35
2022-11-03T02:32:33.989Z,14.34
2022-11-03T02:35:06.172Z,14.32
2022-11-03T02:37:38.237Z,14.31
2022-11-03T02:40:15.577Z,14.30
2022-11-03T02:42:46.656Z,14.27
2022-11-03T02:45:17.722Z,14.23
2022-11-03T02:47:46.514Z,14.21
2022-11-03T02:50:13.617Z,14.18
2022-11-03T02:52:47.005Z,14.18
2022-11-03T02:55:25.854Z,14.15
2022-11-03T02:57:55.292Z,14.15
2022-11-03T03:00:22.535Z,14.12
2022-11-03T03:03:02.425Z,14.12
2022-11-03T03:05:34.424Z,14.09
2022-11-03T03:08:05.697Z,14.08
2022-11-03T03:10:52.042Z,14.06
2022-11-03T03:13:22.702Z,14.04
2022-11-03T03:16:06.081Z,14.06
2022-11-03T03:18:46.767Z,14.05
2022-11-03T03:21:20.120Z,14.04
2022-11-03T03:23:57.664Z,14.02
2022-11-03T03:26:34.929Z,14.01
2022-11-03T03:29:33.940Z,14.00
2022-11-03T03:32:04.160Z,13.97
2022-11-03T03:34:36.069Z,13.98
2022-11-03T03:37:05.347Z,13.97
2022-11-03T03:39:36.527Z,13.96
2022-11-03T03:42:05.268Z,13.95
2022-11-03T03:44:34.312Z,13.95
2022-11-03T03:47:06.563Z,13.94
2022-11-03T03:49:33.571Z,13.93
2022-11-03T03:52:01.466Z,13.91
2022-11-03T03:54:28.364Z,13.91
2022-11-03T03:57:02.804Z,13.89
2022-11-03T03:59:30.137Z,13.89
2022-11-03T04:01:57.885Z,13.87
2022-11-03T04:04:25.444Z,13.87
2022-11-03T04:07:12.376Z,13.85
2022-11-03T04:09:39.308Z,13.85
2022-11-03T04:12:26.511Z,13.85
2022-11-03T04:15:12.130Z,13.84
2022-11-03T04:18:01.982Z,13.83
2022-11-03T04:20:47.906Z,13.83
2022-11-03T04:23:15.085Z,13.86
2022-11-03T04:25:47.971Z,13.86
2022-11-03T04:28:15.971Z,13.83
2022-11-03T04:30:42.944Z,13.82
2022-11-03T04:33:16.546Z,13.83
2022-11-03T04:35:44.566Z,13.83
2022-11-03T04:38:14.521Z,13.82
2022-11-03T04:41:00.473Z,13.82
2022-11-03T04:43:34.205Z,13.82
2022-11-03T04:46:02.140Z,13.78
2022-11-03T04:48:30.189Z,13.79
2022-11-03T04:51:02.791Z,13.79
2022-11-03T04:53:33.197Z,13.78
2022-11-03T04:56:06.082Z,13.79
2022-11-03T04:58:35.532Z,13.78
2022-11-03T05:01:04.056Z,13.76
2022-11-03T05:03:34.046Z,13.75
2022-11-03T05:06:16.644Z,13.76
2022-11-03T05:08:46.813Z,13.75
2022-11-03T05:11:37.563Z,13.75
2022-11-03T05:14:13.245Z,13.74
2022-11-03T05:16:40.385Z,13.73
2022-11-03T05:19:20.531Z,13.73
2022-11-03T05:21:50.298Z,13.73
2022-11-03T05:24:21.285Z,13.73
2022-11-03T05:26:49.872Z,13.71
2022-11-03T05:29:20.054Z,13.71
2022-11-03T05:31:48.469Z,13.69
2022-11-03T05:34:30.605Z,13.71
2022-11-03T05:37:07.254Z,13.70
2022-11-03T05:39:38.097Z,13.69
2022-11-03T05:42:31.031Z,13.69
2022-11-03T05:44:58.543Z,13.68
2022-11-03T05:47:41.257Z,13.68
2022-11-03T05:50:17.135Z,13.67
2022-11-03T05:52:45.750Z,13.66
2022-11-03T05:55:37.227Z,13.67
2022-11-03T05:58:27.675Z,13.66
2022-11-03T06:00:56.806Z,13.66
2022-11-03T06:03:28.214Z,13.64
2022-11-03T06:05:57.201Z,13.63
2022-11-03T06:08:34.067Z,13.65
2022-11-03T06:11:03.485Z,13.66
2022-11-03T06:13:34.622Z,13.64
2022-11-03T06:16:11.993Z,13.63
2022-11-03T06:18:38.971Z,13.64
2022-11-03T06:21:09.571Z,13.63
2022-11-03T06:23:37.900Z,13.63
2022-11-03T06:26:16.223Z,13.63
2022-11-03T06:28:43.080Z,13.64
2022-11-03T06:31:27.722Z,13.65
2022-11-03T06:33:56.678Z,13.64
2022-11-03T06:36:27.101Z,13.64
2022-11-03T06:39:19.734Z,13.64
2022-11-03T06:41:46.486Z,13.66
2022-11-03T06:44:23.282Z,13.67
2022-11-03T06:46:50.078Z,13.67
2022-11-03T06:49:33.080Z,13.67
2022-11-03T06:52:12.021Z,13.67
2022-11-03T06:54:40.412Z,13.68
2022-11-03T06:57:14.662Z,13.70
2022-11-03T07:00:06.669Z,13.69
2022-11-03T07:03:20.742Z,13.72
2022-11-03T07:05:51.696Z,13.74
2022-11-03T07:08:21.699Z,13.74
2022-11-03T07:10:57.643Z,13.75
2022-11-03T07:13:26.044Z,13.74
2022-11-03T07:15:52.960Z,13.75
2022-11-03T07:18:25.223Z,13.78
2022-11-03T07:20:53.959Z,13.82
2022-11-03T07:23:25.402Z,13.82
2022-11-03T07:25:59.376Z,13.84
2022-11-03T07:28:35.674Z,13.87
2022-11-03T07:31:16.441Z,13.90
2022-11-03T07:33:46.166Z,13.93
2022-11-03T07:36:20.937Z,13.96
2022-11-03T07:38:51.474Z,13.98
2022-11-03T07:41:29.653Z,14.02
2022-11-03T07:44:02.219Z,14.05
2022-11-03T07:46:29.535Z,14.07
2022-11-03T07:49:07.809Z,14.11
2022-11-03T07:51:41.904Z,14.13
2022-11-03T07:54:08.798Z,14.17
2022-11-03T07:56:52.996Z,14.19
2022-11-03T08:01:56.040Z,14.24
2022-11-03T08:04:35.280Z,14.28
2022-11-03T08:07:02.614Z,14.30
2022-11-03T08:09:30.335Z,14.34
2022-11-03T08:11:57.454Z,14.34
2022-11-03T08:14:31.654Z,14.37
2022-11-03T08:17:01.126Z,14.39
2022-11-03T08:19:28.554Z,14.42
2022-11-03T08:21:55.490Z,14.45
2022-11-03T08:24:22.568Z,14.48
2022-11-03T08:26:49.494Z,14.50
2022-11-03T08:29:17.826Z,14.53
2022-11-03T08:31:45.154Z,14.56
2022-11-03T08:34:12.114Z,14.59
2022-11-03T08:36:38.968Z,14.62
2022-11-03T08:39:06.499Z,14.64
2022-11-03T08:41:33.725Z,14.67
2022-11-03T08:44:00.556Z,14.70
2022-11-03T08:46:27.454Z,14.73
2022-11-03T08:48:54.381Z,14.77
2022-11-03T08:51:21.927Z,14.81
2022-11-03T08:53:54.266Z,14.85
2022-11-03T08:56:22.559Z,14.88
2022-11-03T08:58:49.938Z,14.91
2022-11-03T09:01:19.209Z,14.95
2022-11-03T09:03:46.677Z,14.98
2022-11-03T09:06:13.839Z,15.00
2022-11-03T09:11:27.694Z,15.07
2022-11-03T09:13:54.666Z,15.09
2022-11-03T09:16:21.580Z,15.13
2022-11-03T09:18:48.501Z,15.14
2022-11-03T09:21:15.430Z,15.16
2022-11-03T09:23:42.404Z,15.19
2022-11-03T09:26:09.508Z,15.21
2022-11-03T09:28:39.290Z,15.24
2022-11-03T09:31:06.319Z,15.26
2022-11-03T09:33:33.371Z,15.29
2022-11-03T09:36:06.159Z,15.31
2022-11-03T09:38:36.023Z,15.34
2022-11-03T09:41:13.571Z,15.37
2022-11-03T09:43:52.437Z,15.39
2022-11-03T09:46:19.841Z,15.43
2022-11-03T09:48:46.868Z,15.46
2022-11-03T09:51:20.709Z,15.50
2022-11-03T09:53:48.532Z,15.56
2022-11-03T09:56:21.895Z,15.58
2022-11-03T09:58:54.033Z,15.63
2022-11-03T10:01:22.519Z,15.68
2022-11-03T10:03:49.828Z,15.71
2022-11-03T10:06:17.744Z,15.76
2022-11-03T10:08:47.303Z,15.81
2022-11-03T10:11:15.821Z,15.84
2022-11-03T10:13:51.246Z,15.88
2022-11-03T10:16:21.270Z,15.92
2022-11-03T10:18:49.249Z,15.97
2022-11-03T10:21:18.223Z,16.02
2022-11-03T10:23:45.220Z,16.05
2022-11-03T10:26:16.630Z,16.12
2022-11-03T10:29:01.916Z,16.13
2022-11-03T10:31:37.273Z,16.17
2022-11-03T10:34:05.969Z,16.18
2022-11-03T10:36:34.698Z,16.20
2022-11-03T10:39:30.877Z,16.23
2022-11-03T10:41:59.259Z,16.22
2022-11-03T10:44:28.900Z,16.24
2022-11-03T10:47:04.404Z,16.25
2022-11-03T10:49:34.669Z,16.25
2022-11-03T10:52:18.752Z,16.27
2022-11-03T10:54:46.336Z,16.29
2022-11-03T10:57:14.404Z,16.29
2022-11-03T10:59:42.617Z,16.28
2022-11-03T11:02:24.606Z,16.29
2022-11-03T11:04:59.522Z,16.30
2022-11-03T11:07:40.203Z,16.31
2022-11-03T11:10:25.147Z,16.31
2022-11-03T11:13:21.889Z,16.33
2022-11-03T11:15:51.141Z,16.35
2022-11-03T11:18:30.277Z,16.39
2022-11-03T11:21:02.221Z,16.42
2022-11-03T11:23:29.130Z,16.46
2022-11-03T11:26:30.279Z,16.49
2022-11-03T11:29:09.474Z,16.53
2022-11-03T11:31:36.865Z,16.55
2022-11-03T11:34:10.091Z,16.57
2022-11-03T11:36:39.431Z,16.62
2022-11-03T11:39:41.392Z,16.64
2022-11-03T11:42:13.897Z,16.67
2022-11-03T11:44:46.965Z,16.68
2022-11-03T11:47:47.772Z,16.72
2022-11-03T11:50:14.735Z,16.76
2022-11-03T11:52:44.871Z,16.79
2022-11-03T11:55:30.847Z,16.77
2022-11-03T11:58:00.809Z,16.77
2022-11-03T12:00:32.065Z,16.78
2022-11-03T12:03:01.633Z,16.79
2022-11-03T12:05:31.651Z,16.80
2022-11-03T12:07:58.786Z,16.83
2022-11-03T12:10:28.008Z,16.88
2022-11-03T12:12:56.738Z,16.88
2022-11-03T12:15:51.006Z,16.87
2022-11-03T12:18:38.929Z,16.87
2022-11-03T12:21:11.093Z,16.91
2022-11-03T12:23:41.501Z,16.92
2022-11-03T12:26:39.589Z,16.96
2022-11-03T12:29:06.449Z,16.98
2022-11-03T12:31:36.047Z,17.01
2022-11-03T12:34:04.080Z,17.03
2022-11-03T12:36:31.083Z,17.05
2022-11-03T12:38:58.343Z,17.06
2022-11-03T12:41:25.506Z,17.08
2022-11-03T12:43:54.376Z,17.11
2022-11-03T12:46:22.430Z,17.15
2022-11-03T12:48:50.146Z,17.17
2022-11-03T12:51:19.261Z,17.18
2022-11-03T12:53:46.955Z,17.17
2022-11-03T12:56:15.617Z,17.15
2022-11-03T12:58:43.687Z,17.14
2022-11-03T13:01:11.323Z,17.14
2022-11-03T13:03:40.409Z,17.12
2022-11-03T13:06:10.290Z,17.13
2022-11-03T13:08:38.269Z,17.13
2022-11-03T13:11:25.179Z,17.12
2022-11-03T13:13:53.321Z,17.12
2022-11-03T13:16:20.361Z,17.13
2022-11-03T13:18:47.365Z,17.13
2022-11-03T13:21:14.336Z,17.13
2022-11-03T13:23:41.431Z,17.12
2022-11-03T13:26:08.460Z,17.13
2022-11-03T13:28:35.621Z,17.11
2022-11-03T13:31:02.604Z,17.12
2022-11-03T13:33:29.452Z,17.13
2022-11-03T13:35:56.423Z,17.13
2022-11-03T13:38:23.404Z,17.13
2022-11-03T13:40:57.734Z,17.16
2022-11-03T13:43:25.679Z,17.17
2022-11-03T13:45:53.144Z,17.19
2022-11-03T13:51:07.506Z,17.23
2022-11-03T13:56:22.528Z,17.27
2022-11-03T14:01:38.874Z,17.30
2022-11-03T14:06:53.097Z,17.34
2022-11-03T14:09:20.340Z,17.35
2022-11-03T14:12:05.918Z,17.37
2022-11-03T14:14:32.997Z,17.37
2022-11-03T14:17:00.014Z,17.38
2022-11-03T14:19:33.575Z,17.39
2022-11-03T14:22:05.066Z,17.40
2022-11-03T14:24:32.859Z,17.40
2022-11-03T14:26:59.730Z,17.41
2022-11-03T14:29:27.229Z,17.40
2022-11-03T14:31:54.957Z,17.39
2022-11-03T14:34:22.010Z,17.38
2022-11-03T14:36:49.009Z,17.35
2022-11-03T14:39:15.917Z,17.34
2022-11-03T14:42:01.431Z,17.32
2022-11-03T14:44:28.303Z,17.31
2022-11-03T14:46:55.282Z,17.28
2022-11-03T14:49:22.708Z,17.25
2022-11-03T14:51:49.554Z,17.25
2022-11-03T14:54:16.387Z,17.23
2022-11-03T14:56:43.380Z,17.20
2022-11-03T14:59:10.374Z,17.17
2022-11-03T15:01:38.883Z,17.14
2022-11-03T15:04:07.997Z,17.10
2022-11-03T15:06:35.971Z,17.02
2022-11-03T15:09:05.352Z,17.03
2022-11-03T15:11:32.639Z,17.00
2022-11-03T15:13:59.848Z,16.97
2022-11-03T15:16:26.823Z,16.95
2022-11-03T15:18:53.839Z,16.94
2022-11-03T15:21:20.726Z,16.93
2022-11-03T15:26:34.819Z,16.88
2022-11-03T15:29:01.731Z,16.87
2022-11-03T15:31:28.892Z,16.86
2022-11-03T15:33:55.827Z,16.85
2022-11-03T15:36:23.779Z,16.83
2022-11-03T15:38:50.675Z,16.83
2022-11-03T15:41:17.788Z,16.81
2022-11-03T15:43:46.612Z,16.79
2022-11-03T15:46:14.393Z,16.77
2022-11-03T15:48:42.177Z,16.77
2022-11-03T15:51:09.861Z,16.76
2022-11-03T15:53:37.100Z,16.75
2022-11-03T15:56:04.307Z,16.72
2022-11-03T15:58:34.775Z,16.71
2022-11-03T16:01:02.850Z,16.69
2022-11-03T16:03:31.948Z,16.69
2022-11-03T16:06:00.092Z,16.67
2022-11-03T16:08:27.608Z,16.66
2022-11-03T16:10:57.911Z,16.65
2022-11-03T16:13:25.842Z,16.64
2022-11-03T16:15:54.714Z,16.62
2022-11-03T16:18:22.169Z,16.61
2022-11-03T16:20:50.044Z,16.58
2022-11-03T16:23:17.538Z,16.60
2022-11-03T16:25:44.896Z,16.60
2022-11-03T16:28:12.446Z,16.58
2022-11-03T16:30:39.841Z,16.57
2022-11-03T16:33:07.684Z,16.57
2022-11-03T16:35:35.300Z,16.56
2022-11-03T16:38:08.237Z,16.56
2022-11-03T16:40:56.071Z,16.56
2022-11-03T16:43:26.135Z,16.53
2022-11-03T16:45:57.891Z,16.53
2022-11-03T16:48:25.965Z,16.52
2022-11-03T16:50:58.038Z,16.50
2022-11-03T16:53:27.755Z,16.49
2022-11-03T16:55:55.727Z,16.49
2022-11-03T16:58:25.640Z,16.48
2022-11-03T17:00:56.237Z,16.48
2022-11-03T17:03:23.998Z,16.45
2022-11-03T17:05:51.710Z,16.44
2022-11-03T17:08:50.707Z,16.43
2022-11-03T17:11:07.531Z,16.43
2022-11-03T17:13:35.021Z,16.42
2022-11-03T17:16:02.791Z,16.42
2022-11-03T17:18:30.494Z,16.42
2022-11-03T17:21:00.626Z,16.41
2022-11-03T17:23:30.425Z,16.41
2022-11-03T17:26:02.030Z,16.40
2022-11-03T17:28:30.417Z,16.40
2022-11-03T17:30:59.347Z,16.38
2022-11-03T17:33:27.724Z,16.37
2022-11-03T17:35:55.402Z,16.35
2022-11-03T17:38:25.027Z,16.36
2022-11-03T17:40:52.739Z,16.34
2022-11-03T17:43:25.114Z,16.33
2022-11-03T17:45:53.847Z,16.31
2022-11-03T17:48:27.714Z,16.32
2022-11-03T17:50:56.563Z,16.29
2022-11-03T17:53:30.152Z,16.26
2022-11-03T17:58:48.549Z,16.26
2022-11-03T18:01:26.309Z,16.26
2022-11-03T18:03:54.159Z,16.22
2022-11-03T18:06:22.502Z,16.20
2022-11-03T18:08:50.659Z,16.20
2022-11-03T18:11:44.052Z,16.20
2022-11-03T18:14:13.549Z,16.19
2022-11-03T18:16:44.732Z,16.19
2022-11-03T18:19:15.630Z,16.16
2022-11-03T18:21:45.563Z,16.17
2022-11-03T18:24:17.627Z,16.15
2022-11-03T18:26:46.229Z,16.14
2022-11-03T18:29:14.175Z,16.15
2022-11-03T18:31:46.863Z,16.12
2022-11-03T18:34:20.451Z,16.12
2022-11-03T18:36:49.264Z,16.09
2022-11-03T18:39:29.162Z,16.08
2022-11-03T18:41:56.917Z,16.07
2022-11-03T18:44:31.127Z,16.05
2022-11-03T18:47:00.186Z,16.06
2022-11-03T18:49:33.521Z,16.04
2022-11-03T18:52:07.384Z,16.04
2022-11-03T18:54:36.136Z,16.03
2022-11-03T18:57:04.984Z,16.01
2022-11-03T18:59:39.878Z,16.01
2022-11-03T19:02:30.529Z,16.00
2022-11-03T19:05:13.686Z,16.00
2022-11-03T19:07:46.096Z,15.98
2022-11-03T19:10:22.666Z,15.97
2022-11-03T19:12:50.634Z,15.95
2022-11-03T19:15:22.862Z,15.92
2022-11-03T19:18:09.035Z,15.93
2022-11-03T19:20:37.271Z,15.92
2022-11-03T19:31:02.532Z,15.87
2022-11-03T19:33:39.194Z,15.85
2022-11-03T19:36:35.789Z,15.84
2022-11-03T19:39:55.931Z,15.80
2022-11-03T19:43:10.836Z,15.78
2022-11-03T19:45:39.693Z,15.74
2022-11-03T19:48:23.658Z,15.72
2022-11-03T19:50:52.586Z,15.68
2022-11-03T19:53:45.975Z,15.64
2022-11-03T19:56:18.563Z,15.57
2022-11-03T19:58:46.471Z,15.56
2022-11-03T20:01:14.788Z,15.53
2022-11-03T20:03:43.103Z,15.49
2022-11-03T20:06:13.121Z,15.45
2022-11-03T20:08:47.843Z,15.41
2022-11-03T20:11:17.742Z,15.35
2022-11-03T20:13:45.616Z,15.31
2022-11-03T20:16:15.626Z,15.29
2022-11-03T20:18:44.431Z,15.25
2022-11-03T20:29:00.914Z,15.13
2022-11-03T20:46:32.231Z,14.86
2022-11-03T20:49:00.570Z,14.83
2022-11-03T20:51:33.824Z,14.81
2022-11-03T20:54:03.566Z,14.76
2022-11-03T20:56:30.897Z,14.73
2022-11-03T20:58:59.372Z,14.70
2022-11-03T21:01:36.099Z,14.70
2022-11-03T21:04:04.811Z,14.66
2022-11-03T21:06:42.971Z,14.61
2022-11-03T21:09:23.914Z,14.59
2022-11-03T21:12:04.194Z,14.59
2022-11-03T21:15:16.368Z,14.58
2022-11-03T21:18:03.511Z,14.54
2022-11-03T21:20:33.077Z,14.48
2022-11-03T21:23:05.648Z,14.50
2022-11-03T21:25:32.801Z,14.34
2022-11-03T21:28:05.760Z,14.42
2022-11-03T21:30:32.725Z,14.38
2022-11-03T21:32:59.581Z,14.35
2022-11-03T21:35:26.838Z,14.29
2022-11-03T21:37:54.159Z,14.35
2022-11-03T21:40:21.114Z,14.28
2022-11-03T21:43:06.659Z,14.31
2022-11-03T21:45:33.548Z,14.32
2022-11-03T21:48:19.484Z,14.31
2022-11-03T21:50:46.699Z,14.30
2022-11-03T21:53:13.778Z,14.30
2022-11-03T21:55:40.959Z,14.30
2022-11-03T21:58:08.191Z,14.28
2022-11-03T22:00:35.286Z,14.25
2022-11-03T22:03:02.183Z,14.31
2022-11-03T22:05:29.468Z,14.27
2022-11-03T22:07:56.275Z,14.22
2022-11-03T22:10:23.421Z,14.23
2022-11-03T22:12:50.206Z,14.22
2022-11-03T22:15:35.877Z,14.21
2022-11-03T22:18:04.391Z,14.21
2022-11-03T22:20:49.866Z,14.18
2022-11-03T22:23:35.322Z,14.18
2022-11-03T22:26:21.060Z,14.19
2022-11-03T22:29:08.426Z,14.17
2022-11-03T22:31:41.166Z,14.13
2022-11-03T22:34:26.644Z,14.11
2022-11-03T22:36:53.898Z,14.12
2022-11-03T22:39:39.474Z,14.07
2022-11-03T22:42:26.336Z,14.07
2022-11-03T22:45:13.419Z,14.06
2022-11-03T22:47:40.364Z,14.05
2022-11-03T22:50:10.434Z,14.03
2022-11-03T22:52:37.156Z,14.01
2022-11-03T22:55:04.482Z,14.01
2022-11-03T22:57:31.295Z,14.00
2022-11-03T22:59:58.053Z,13.95
2022-11-03T23:02:27.956Z,13.93
2022-11-03T23:04:56.671Z,13.91
2022-11-03T23:07:28.481Z,13.89
2022-11-03T23:09:58.070Z,13.90
2022-11-03T23:12:31.174Z,13.89
2022-11-03T23:15:22.387Z,13.86
2022-11-03T23:18:14.734Z,13.84
2022-11-03T23:21:00.274Z,13.81
2022-11-03T23:23:46.018Z,13.82
2022-11-03T23:26:18.572Z,13.79
2022-11-03T23:28:47.891Z,13.82
2022-11-03T23:31:17.431Z,13.81
2022-11-03T23:33:44.480Z,13.81
2022-11-03T23:36:14.226Z,13.82
